Time;durP1;ratioP1;P1;durP2;ratioP2;P2;SDS_P1;SDS_P2;PMS_P1;PMS_P2;Temp;Humidity;BMP_temperature;BMP_pressure;BME280_temperature;BME280_humidity;BME280_pressure;Samples;Min_cycle;Max_cycle;Signal;HPM_P1;HPM_P2
2021/12/07 00:01:57;;;;;;;7.35;3.55;;;4.50;99.90;;;;;;5111914;28;20372;-55
2021/12/07 00:04:23;;;;;;;7.53;3.72;;;3.10;99.90;;;;;;5112571;28;20466;-55
2021/12/07 00:06:49;;;;;;;6.85;3.40;;;3.10;99.90;;;;;;5112375;28;20480;-59
2021/12/07 00:09:17;;;;;;;8.18;3.85;;;3.10;99.90;;;;;;5112260;28;20408;-55
2021/12/07 00:11:44;;;;;;;8.68;3.90;;;4.70;99.90;;;;;;5112563;28;20380;-58
2021/12/07 00:14:15;;;;;;;8.07;4.00;;;3.10;99.90;;;;;;5111122;28;20625;-55
2021/12/07 00:16:43;;;;;;;8.13;3.90;;;3.60;99.90;;;;;;5112329;28;20956;-55
2021/12/07 00:19:10;;;;;;;6.93;3.63;;;3.20;99.90;;;;;;5111725;28;20416;-56
2021/12/07 00:21:36;;;;;;;8.80;4.10;;;4.40;99.90;;;;;;5112349;28;20379;-55
2021/12/07 00:24:02;;;;;;;8.50;3.58;;;3.30;99.90;;;;;;5111355;28;20373;-55
2021/12/07 00:26:28;;;;;;;9.00;3.67;;;3.30;99.90;;;;;;5111949;28;20861;-55
2021/12/07 00:28:55;;;;;;;7.43;3.17;;;3.40;99.90;;;;;;5111512;28;20373;-55
2021/12/07 00:31:27;;;;;;;7.78;3.47;;;4.60;99.90;;;;;;5111860;28;20388;-56
2021/12/07 00:36:50;;;;;;;7.30;3.30;;;3.40;99.90;;;;;;5102457;28;20473;-59
2021/12/07 00:39:18;;;;;;;6.90;3.40;;;3.40;99.90;;;;;;5111976;28;20729;-55
2021/12/07 00:41:45;;;;;;;7.45;3.10;;;3.40;99.90;;;;;;5110200;28;20470;-55
2021/12/07 00:44:11;;;;;;;7.60;3.40;;;3.60;99.90;;;;;;5110857;28;20391;-55
2021/12/07 00:46:37;;;;;;;7.85;3.75;;;4.30;99.90;;;;;;5110568;28;20372;-55
2021/12/07 00:49:04;;;;;;;7.13;3.33;;;3.10;99.90;;;;;;5110683;28;20369;-55
2021/12/07 00:51:30;;;;;;;9.43;3.90;;;4.60;99.90;;;;;;5111782;28;20377;-55
2021/12/07 00:53:55;;;;;;;8.88;4.10;;;2.90;99.90;;;;;;5110529;28;20377;-55
2021/12/07 00:56:22;;;;;;;8.10;3.70;;;2.90;99.90;;;;;;5110305;28;20753;-55
2021/12/07 00:58:49;;;;;;;9.05;4.50;;;2.70;99.90;;;;;;5111586;28;20380;-55
2021/12/07 01:01:16;;;;;;;9.10;4.68;;;2.60;99.90;;;;;;5110872;28;20408;-55
2021/12/07 01:03:42;;;;;;;9.63;4.60;;;2.60;99.90;;;;;;5110352;28;20828;-55
2021/12/07 01:24:58;;;;;;;9.70;4.88;;;2.60;99.90;;;;;;5110019;28;20387;-56
2021/12/07 01:27:24;;;;;;;9.90;5.10;;;2.60;99.90;;;;;;5110829;28;20897;-55
2021/12/07 01:30:01;;;;;;;10.57;5.10;;;2.70;99.90;;;;;;5110514;28;20894;-55
2021/12/07 01:50:45;;;;;;;9.82;4.50;;;2.90;99.90;;;;;;5110582;28;20384;-56
2021/12/07 02:01:06;;;;;;;8.45;3.95;;;3.80;99.90;;;;;;5109822;28;20918;-55
2021/12/07 02:03:32;;;;;;;8.20;3.70;;;4.10;99.90;;;;;;5110053;28;20422;-56
2021/12/07 02:05:58;;;;;;;10.43;4.60;;;2.80;99.90;;;;;;5109518;28;20745;-55
2021/12/07 02:08:24;;;;;;;8.32;4.10;;;2.70;99.90;;;;;;5110445;28;20497;-55
2021/12/07 02:10:54;;;;;;;9.00;4.60;;;2.70;99.90;;;;;;5108721;28;20408;-56
2021/12/07 02:14:16;;;;;;;9.35;4.38;;;2.70;99.90;;;;;;5108501;28;20404;-55
2021/12/07 02:16:08;;;;;;;8.63;4.35;;;3.20;99.90;;;;;;5101467;28;20412;-56
2021/12/07 02:18:34;;;;;;;10.90;4.30;;;4.10;99.90;;;;;;5110354;28;20387;-55
2021/12/07 02:21:22;;;;;;;8.85;4.18;;;4.10;99.90;;;;;;5109493;28;20380;-55
2021/12/07 02:23:48;;;;;;;8.98;4.68;;;2.70;99.90;;;;;;5110170;28;20417;-55
2021/12/07 02:26:14;;;;;;;8.68;4.03;;;2.70;99.90;;;;;;5108938;28;20376;-55
2021/12/07 02:28:40;;;;;;;8.00;4.10;;;2.60;99.90;;;;;;5110145;28;20483;-56
2021/12/07 02:31:10;;;;;;;7.05;3.45;;;2.60;99.90;;;;;;5109205;28;20398;-55
2021/12/07 02:33:37;;;;;;;7.57;3.47;;;2.70;99.90;;;;;;5109848;28;20368;-55
2021/12/07 02:36:05;;;;;;;9.15;4.25;;;2.80;99.90;;;;;;5109114;28;20397;-55
2021/12/07 02:38:31;;;;;;;9.18;4.30;;;2.90;99.90;;;;;;5110034;28;20444;-55
2021/12/07 02:40:56;;;;;;;8.55;4.10;;;2.90;99.90;;;;;;5107919;28;20463;-56
2021/12/07 02:43:22;;;;;;;9.13;4.20;;;3.10;99.90;;;;;;5110305;28;20760;-55
2021/12/07 02:45:48;;;;;;;9.20;4.60;;;3.00;99.90;;;;;;5110130;28;20973;-55
2021/12/07 02:48:14;;;;;;;8.25;4.07;;;3.10;99.90;;;;;;5107836;28;20527;-54
2021/12/07 02:50:39;;;;;;;8.85;4.32;;;4.20;99.90;;;;;;5110308;28;20861;-54
2021/12/07 02:53:05;;;;;;;8.27;3.80;;;3.00;99.90;;;;;;5109244;28;20876;-56
2021/12/07 02:55:32;;;;;;;8.30;3.85;;;2.90;99.90;;;;;;5109500;28;20487;-55
2021/12/07 02:57:58;;;;;;;8.23;4.00;;;2.80;99.90;;;;;;5108702;28;20848;-55
2021/12/07 03:00:31;;;;;;;9.07;4.18;;;4.20;99.90;;;;;;5109707;28;20412;-55
2021/12/07 03:03:03;;;;;;;8.05;3.90;;;2.80;99.90;;;;;;5109068;28;20410;-58
2021/12/07 03:26:49;;;;;;;7.23;3.40;;;3.10;99.90;;;;;;5113509;28;20387;-55
2021/12/07 03:29:15;;;;;;;7.87;3.50;;;3.20;99.90;;;;;;5112497;28;20504;-56
2021/12/07 03:31:40;;;;;;;7.80;3.30;;;3.20;99.90;;;;;;5113592;28;20383;-55
2021/12/07 03:34:06;;;;;;;7.97;3.13;;;4.60;99.90;;;;;;5112915;28;20707;-55
2021/12/07 03:36:32;;;;;;;6.23;2.63;;;3.20;99.90;;;;;;5113324;28;20821;-54
2021/12/07 03:38:58;;;;;;;7.18;2.70;;;3.30;99.90;;;;;;5112200;28;20888;-58
2021/12/07 03:41:24;;;;;;;5.93;2.50;;;3.40;99.90;;;;;;5111999;28;20384;-55
2021/12/07 03:43:50;;;;;;;5.90;2.60;;;3.30;99.90;;;;;;5113372;28;20392;-55
2021/12/07 03:46:17;;;;;;;6.32;2.70;;;3.30;99.90;;;;;;5112363;28;20454;-55
2021/12/07 03:48:43;;;;;;;7.30;2.17;;;3.30;99.90;;;;;;5113410;28;20380;-55
2021/12/07 03:51:09;;;;;;;6.07;2.40;;;3.20;99.90;;;;;;5112377;28;20376;-55
2021/12/07 03:53:35;;;;;;;5.80;2.20;;;3.20;99.90;;;;;;5112663;28;20473;-55
2021/12/07 03:56:02;;;;;;;5.60;2.00;;;4.40;99.90;;;;;;5111779;28;20501;-55
2021/12/07 03:58:29;;;;;;;6.00;2.40;;;3.20;99.90;;;;;;5113104;28;20536;-55
2021/12/07 04:00:55;;;;;;;10.30;2.72;;;3.20;99.90;;;;;;5112495;28;20498;-59
2021/12/07 04:03:20;;;;;;;5.47;2.20;;;4.60;99.90;;;;;;5111980;28;20797;-56
2021/12/07 04:05:53;;;;;;;6.50;2.20;;;3.30;99.90;;;;;;5112972;28;20742;-57
2021/12/07 04:08:22;;;;;;;6.03;2.43;;;3.40;99.90;;;;;;5112026;28;20385;-55
2021/12/07 04:10:49;;;;;;;5.22;2.00;;;3.40;99.90;;;;;;5112627;28;20381;-55
2021/12/07 04:13:15;;;;;;;5.70;2.15;;;3.40;99.90;;;;;;5111505;28;20424;-55
2021/12/07 04:15:41;;;;;;;11.55;3.28;;;3.30;99.90;;;;;;5110216;28;20441;-55
2021/12/07 04:18:08;;;;;;;5.38;2.00;;;4.70;99.90;;;;;;5111519;28;20383;-55
2021/12/07 04:20:34;;;;;;;4.65;1.20;;;4.20;99.90;;;;;;5112447;27;20379;-55
2021/12/07 04:23:00;;;;;;;5.10;1.52;;;3.30;99.90;;;;;;5110291;28;20383;-55
2021/12/07 04:25:26;;;;;;;5.00;1.30;;;3.30;99.90;;;;;;5112419;28;20372;-55
2021/12/07 04:27:53;;;;;;;4.30;1.33;;;4.10;99.90;;;;;;5112063;28;20873;-55
2021/12/07 04:30:26;;;;;;;4.10;1.20;;;4.30;99.90;;;;;;5110711;28;20388;-55
2021/12/07 04:32:52;;;;;;;5.45;1.40;;;3.30;99.90;;;;;;5112055;28;20372;-55
2021/12/07 04:35:18;;;;;;;4.85;1.60;;;3.30;99.90;;;;;;5110565;28;20396;-55
2021/12/07 04:37:44;;;;;;;5.35;1.60;;;3.40;99.90;;;;;;5112305;28;20373;-54
2021/12/07 04:40:15;;;;;;;4.60;1.85;;;3.50;99.90;;;;;;5111177;28;20384;-54
2021/12/07 04:42:41;;;;;;;7.60;1.80;;;3.50;99.90;;;;;;5111868;28;20461;-55
2021/12/07 04:45:20;;;;;;;6.05;1.60;;;4.00;99.90;;;;;;5110152;28;20396;-54
2021/12/07 04:58:29;;;;;;;4.20;0.83;;;3.20;99.90;;;;;;5100743;28;20802;-54
2021/12/07 05:00:54;;;;;;;4.93;0.80;;;3.10;99.90;;;;;;5111703;28;20383;-54
2021/12/07 05:03:21;;;;;;;4.82;1.55;;;3.20;99.90;;;;;;5111011;28;20441;-54
2021/12/07 05:05:51;;;;;;;5.63;1.40;;;3.20;99.90;;;;;;5111617;28;20412;-54
2021/12/07 05:08:30;;;;;;;5.35;1.50;;;3.10;99.90;;;;;;5109500;28;20416;-54
2021/12/07 05:13:28;;;;;;;6.63;1.40;;;2.20;99.90;;;;;;5110668;28;20492;-55
2021/12/07 05:24:08;;;;;;;7.70;1.75;;;3.00;99.90;;;;;;5088629;28;20370;-56
2021/12/07 05:40:22;;;;;;;7.80;2.22;;;3.50;99.90;;;;;;5110117;28;20373;-54
2021/12/07 05:42:49;;;;;;;6.85;2.50;;;3.30;99.90;;;;;;5110926;28;20388;-54
2021/12/07 05:45:20;;;;;;;7.00;2.70;;;3.40;99.90;;;;;;5110180;28;20414;-54
2021/12/07 05:47:46;;;;;;;9.30;2.67;;;3.40;99.90;;;;;;5111075;28;20376;-54
2021/12/07 05:50:15;;;;;;;6.97;2.45;;;3.50;99.90;;;;;;5110166;28;20499;-55
2021/12/07 05:52:41;;;;;;;9.23;2.50;;;3.60;99.90;;;;;;5110670;28;20380;-54
2021/12/07 05:55:08;;;;;;;7.83;2.80;;;4.90;99.90;;;;;;5109657;28;20470;-54
2021/12/07 05:57:34;;;;;;;6.30;2.30;;;3.70;99.90;;;;;;5109822;28;20738;-54
2021/12/07 06:00:00;;;;;;;6.40;3.00;;;3.80;99.90;;;;;;5109462;28;20872;-58
2021/12/07 06:02:26;;;;;;;7.70;2.27;;;3.90;99.90;;;;;;5110461;28;20373;-55
2021/12/07 06:04:52;;;;;;;9.10;2.20;;;4.00;99.90;;;;;;5109295;28;20380;-55
2021/12/07 06:07:17;;;;;;;7.18;2.13;;;4.00;99.90;;;;;;5108477;28;20380;-55
2021/12/07 06:09:43;;;;;;;9.68;2.30;;;4.10;99.90;;;;;;5109690;28;20383;-55
2021/12/07 06:12:09;;;;;;;8.00;2.17;;;4.00;99.90;;;;;;5108655;28;20391;-56
2021/12/07 06:14:41;;;;;;;5.65;1.70;;;4.00;99.90;;;;;;5109532;28;20396;-55
2021/12/07 06:17:07;;;;;;;7.20;2.10;;;5.60;99.90;;;;;;5109179;28;20427;-54
2021/12/07 06:19:33;;;;;;;7.23;2.10;;;3.90;99.90;;;;;;5109344;28;20741;-55
2021/12/07 06:21:59;;;;;;;6.15;1.30;;;4.10;99.90;;;;;;5109414;28;20376;-58
2021/12/07 06:24:24;;;;;;;8.70;2.20;;;5.40;99.90;;;;;;5109019;28;20396;-55
2021/12/07 06:26:51;;;;;;;5.70;1.70;;;3.90;99.90;;;;;;5109721;28;20380;-55
2021/12/07 06:29:17;;;;;;;7.00;1.85;;;3.90;99.90;;;;;;5106295;28;20475;-55
2021/12/07 06:31:43;;;;;;;6.13;1.83;;;4.00;99.90;;;;;;5109460;28;20454;-55
2021/12/07 06:34:10;;;;;;;6.03;2.20;;;4.10;99.90;;;;;;5109253;28;20845;-54
2021/12/07 06:36:37;;;;;;;7.82;2.10;;;4.10;99.90;;;;;;5109691;28;20388;-56
2021/12/07 06:39:05;;;;;;;10.05;2.00;;;4.10;99.90;;;;;;5108255;28;20388;-55
2021/12/07 06:41:31;;;;;;;8.55;2.30;;;4.40;99.90;;;;;;5108729;28;20674;-55
2021/12/07 06:43:56;;;;;;;6.28;1.95;;;4.10;99.90;;;;;;5110154;28;20397;-55
2021/12/07 06:46:22;;;;;;;7.83;2.10;;;4.20;99.90;;;;;;5109236;28;20380;-55
2021/12/07 06:48:48;;;;;;;8.00;2.25;;;4.10;99.90;;;;;;5110044;28;20375;-54
2021/12/07 06:51:13;;;;;;;6.90;2.00;;;4.10;99.90;;;;;;5109038;28;20385;-54
2021/12/07 06:53:40;;;;;;;6.40;2.07;;;4.00;99.90;;;;;;5109671;28;20464;-54
2021/12/07 06:56:07;;;;;;;7.32;1.80;;;3.90;99.90;;;;;;5108887;28;20845;-54
2021/12/07 06:58:34;;;;;;;8.30;2.15;;;3.80;99.90;;;;;;5109894;28;20394;-54
2021/12/07 07:01:02;;;;;;;6.80;2.13;;;3.80;99.90;;;;;;5109462;28;20411;-58
2021/12/07 07:03:28;;;;;;;8.68;2.28;;;3.70;99.90;;;;;;5106065;28;20405;-54
2021/12/07 07:05:53;;;;;;;6.00;2.03;;;3.60;99.90;;;;;;5105203;28;20407;-55
2021/12/07 07:08:19;;;;;;;8.50;2.40;;;3.70;99.90;;;;;;5108633;28;20469;-55
2021/12/07 07:10:46;;;;;;;10.45;2.78;;;3.70;99.90;;;;;;5109092;28;20422;-55
2021/12/07 07:13:12;;;;;;;7.85;2.40;;;3.80;99.90;;;;;;5108566;28;20431;-54
2021/12/07 07:15:38;;;;;;;8.30;2.45;;;5.00;99.90;;;;;;5107665;28;20412;-54
2021/12/07 07:18:04;;;;;;;8.97;2.60;;;3.90;99.90;;;;;;5108738;28;20373;-55
2021/12/07 07:20:31;;;;;;;7.23;2.53;;;4.00;99.90;;;;;;5108938;28;20376;-55
2021/12/07 07:22:56;;;;;;;12.98;3.30;;;5.30;99.90;;;;;;5109397;28;20380;-54
2021/12/07 07:25:22;;;;;;;10.43;2.90;;;4.30;99.90;;;;;;5108678;28;20618;-54
2021/12/07 07:27:48;;;;;;;9.83;2.47;;;4.40;99.90;;;;;;5109216;28;20379;-54
2021/12/07 07:30:16;;;;;;;7.45;2.30;;;6.00;99.90;;;;;;5108448;28;20379;-55
2021/12/07 07:32:43;;;;;;;8.32;2.70;;;4.40;99.90;;;;;;5109133;28;20380;-56
2021/12/07 07:35:10;;;;;;;8.50;2.00;;;4.30;99.90;;;;;;5108358;28;20539;-54
2021/12/07 07:37:36;;;;;;;8.55;2.28;;;4.20;99.90;;;;;;5108992;28;20529;-54
2021/12/07 07:40:08;;;;;;;9.70;2.40;;;4.10;99.90;;;;;;5108415;28;20372;-58
2021/12/07 07:42:34;;;;;;;7.43;1.70;;;4.20;99.90;;;;;;5109532;28;20508;-54
2021/12/07 07:45:00;;;;;;;6.50;2.10;;;4.20;99.90;;;;;;5109014;28;20782;-58
2021/12/07 07:47:26;;;;;;;5.50;1.75;;;4.50;99.90;;;;;;5108992;28;20455;-54
2021/12/07 07:49:52;;;;;;;8.40;2.25;;;4.20;99.90;;;;;;5109051;28;20464;-55
2021/12/07 07:52:17;;;;;;;7.60;2.10;;;4.30;99.90;;;;;;5111578;28;20460;-55
2021/12/07 07:54:43;;;;;;;9.70;2.13;;;4.20;99.90;;;;;;5112706;28;20380;-54
2021/12/07 07:57:09;;;;;;;9.20;2.15;;;4.20;99.90;;;;;;5111740;28;20473;-54
2021/12/07 07:59:36;;;;;;;8.85;2.40;;;4.20;99.90;;;;;;5112889;28;20377;-55
2021/12/07 08:02:02;;;;;;;7.95;2.20;;;4.20;99.90;;;;;;5111947;28;20380;-58
2021/12/07 08:04:28;;;;;;;8.68;2.10;;;5.20;99.90;;;;;;5112404;27;20387;-55
2021/12/07 08:06:54;;;;;;;6.63;2.28;;;4.20;99.90;;;;;;5112004;28;20475;-54
2021/12/07 08:09:19;;;;;;;12.33;2.20;;;4.20;99.90;;;;;;5111316;28;20373;-56
2021/12/07 08:11:45;;;;;;;9.63;1.80;;;4.30;99.90;;;;;;5110937;28;20424;-54
2021/12/07 08:14:11;;;;;;;8.55;2.42;;;4.20;99.90;;;;;;5111285;28;20461;-56
2021/12/07 08:16:38;;;;;;;6.30;2.10;;;4.20;99.90;;;;;;5093544;28;20928;-55
2021/12/07 08:19:04;;;;;;;7.50;2.15;;;4.30;99.90;;;;;;5112006;28;20389;-59
2021/12/07 08:21:30;;;;;;;8.95;2.28;;;4.80;99.90;;;;;;5112075;28;20368;-55
2021/12/07 08:23:56;;;;;;;8.03;1.73;;;4.30;99.90;;;;;;5112285;28;20505;-55
2021/12/07 08:26:23;;;;;;;8.10;1.90;;;4.30;99.90;;;;;;5110212;28;20550;-55
2021/12/07 08:28:54;;;;;;;9.40;2.50;;;4.30;99.90;;;;;;5112398;28;20380;-54
2021/12/07 08:31:21;;;;;;;7.60;2.80;;;4.30;99.90;;;;;;5111256;28;20483;-55
2021/12/07 08:33:46;;;;;;;6.82;1.50;;;4.40;99.90;;;;;;5110686;28;20488;-55
2021/12/07 08:36:12;;;;;;;8.50;1.80;;;4.90;99.90;;;;;;5111251;28;20479;-55
2021/12/07 08:38:39;;;;;;;5.90;1.55;;;5.70;99.90;;;;;;5111750;28;20380;-54
2021/12/07 08:41:05;;;;;;;8.43;2.00;;;4.50;99.90;;;;;;5111508;28;20403;-58
2021/12/07 08:43:33;;;;;;;10.13;1.95;;;4.50;99.90;;;;;;5111789;28;20865;-55
2021/12/07 08:46:00;;;;;;;6.03;1.80;;;4.60;99.90;;;;;;5111831;28;20556;-55
2021/12/07 08:48:27;;;;;;;10.15;2.50;;;4.60;99.90;;;;;;5111308;28;20377;-55
2021/12/07 08:50:53;;;;;;;7.15;2.00;;;4.70;99.90;;;;;;5111736;28;20364;-55
2021/12/07 08:53:27;;;;;;;8.70;1.70;;;4.60;99.90;;;;;;5110831;28;20464;-55
2021/12/07 09:01:24;;;;;;;8.20;2.10;;;4.90;99.90;;;;;;5109784;28;20368;-55
2021/12/07 09:03:51;;;;;;;8.40;2.50;;;4.70;99.90;;;;;;5111480;28;20383;-56
2021/12/07 09:06:17;;;;;;;8.43;2.00;;;4.80;99.90;;;;;;5110810;28;20388;-55
2021/12/07 09:08:43;;;;;;;8.47;1.53;;;4.80;99.90;;;;;;5110823;28;20373;-54
2021/12/07 09:11:11;;;;;;;6.60;2.20;;;4.70;99.90;;;;;;5110190;28;20761;-55
2021/12/07 09:13:38;;;;;;;9.85;1.90;;;4.70;99.90;;;;;;5111098;28;20428;-54
2021/12/07 09:16:04;;;;;;;7.03;1.50;;;4.80;99.90;;;;;;5110938;28;20938;-58
2021/12/07 09:18:30;;;;;;;8.00;1.40;;;4.80;99.90;;;;;;5111700;28;20460;-55
2021/12/07 09:20:56;;;;;;;8.40;2.00;;;3.70;99.90;;;;;;5111116;28;20372;-55
2021/12/07 09:23:22;;;;;;;6.07;1.87;;;4.90;99.90;;;;;;5109850;28;20396;-55
2021/12/07 09:25:48;;;;;;;6.47;1.80;;;5.50;99.90;;;;;;5111375;28;20380;-55
2021/12/07 09:28:14;;;;;;;6.90;1.70;;;6.30;99.90;;;;;;5110068;28;20406;-55
2021/12/07 09:30:40;;;;;;;6.13;1.50;;;6.80;99.90;;;;;;5111034;28;20450;-55
2021/12/07 09:33:06;;;;;;;9.05;2.60;;;7.10;99.90;;;;;;5110104;28;20376;-56
2021/12/07 09:35:33;;;;;;;9.70;1.80;;;7.40;99.90;;;;;;5110396;28;20411;-53
2021/12/07 09:38:00;;;;;;;5.63;1.85;;;7.70;99.90;;;;;;5108981;28;20380;-52
2021/12/07 09:40:28;;;;;;;9.70;1.85;;;7.80;99.90;;;;;;5109815;28;20483;-52
2021/12/07 09:42:56;;;;;;;7.57;1.33;;;7.90;99.90;;;;;;5110448;28;20395;-52
2021/12/07 09:45:25;;;;;;;7.25;1.70;;;7.70;99.90;;;;;;5109794;28;20407;-52
2021/12/07 09:47:50;;;;;;;9.18;1.70;;;7.80;99.90;;;;;;5110211;28;20372;-53
2021/12/07 09:50:20;;;;;;;6.87;1.60;;;7.90;99.90;;;;;;5109859;28;20384;-55
2021/12/07 09:52:47;;;;;;;8.25;1.42;;;8.40;99.90;;;;;;5110237;27;20389;-55
2021/12/07 09:55:15;;;;;;;9.23;1.60;;;8.70;99.90;;;;;;5109449;28;20457;-55
2021/12/07 09:57:41;;;;;;;6.93;1.63;;;9.00;99.90;;;;;;5110450;28;20380;-55
2021/12/07 10:00:11;;;;;;;7.30;1.40;;;9.20;99.90;;;;;;5109326;28;20412;-55
2021/12/07 10:02:37;;;;;;;8.73;1.50;;;8.80;99.90;;;;;;5108810;28;20364;-54
2021/12/07 10:05:03;;;;;;;6.05;1.40;;;8.20;99.90;;;;;;5109546;28;20376;-56
2021/12/07 10:07:29;;;;;;;10.52;1.85;;;7.80;99.90;;;;;;5110485;27;20376;-52
2021/12/07 10:09:54;;;;;;;5.50;1.50;;;7.90;99.90;;;;;;5110014;28;20679;-52
2021/12/07 10:12:22;;;;;;;7.13;1.80;;;8.30;99.90;;;;;;5108908;28;20377;-53
2021/12/07 10:14:49;;;;;;;7.25;1.50;;;8.80;99.90;;;;;;5109402;28;20938;-55
2021/12/07 10:17:20;;;;;;;9.25;2.03;;;9.50;99.90;;;;;;5109222;28;20416;-55
2021/12/07 10:19:48;;;;;;;7.10;1.50;;;9.00;99.90;;;;;;5110152;28;20445;-55
2021/12/07 10:22:20;;;;;;;6.10;1.27;;;8.90;99.90;;;;;;5109094;28;20459;-55
2021/12/07 10:24:54;;;;;;;5.60;1.20;;;8.80;99.90;;;;;;5109357;28;20865;-55
2021/12/07 10:27:33;;;;;;;5.97;1.50;;;9.00;99.90;;;;;;5109184;28;20419;-54
2021/12/07 10:30:01;;;;;;;6.80;1.50;;;9.20;99.90;;;;;;5109609;28;20455;-55
2021/12/07 10:32:26;;;;;;;8.80;1.60;;;9.10;99.90;;;;;;5109041;28;20465;-55
2021/12/07 10:34:52;;;;;;;7.90;1.60;;;9.10;99.90;;;;;;5109330;28;20408;-55
2021/12/07 10:37:18;;;;;;;7.28;1.30;;;9.60;99.90;;;;;;5107908;28;20868;-55
2021/12/07 10:39:49;;;;;;;8.20;1.80;;;9.40;99.90;;;;;;5109475;28;20377;-55
2021/12/07 10:42:25;;;;;;;6.18;1.10;;;9.00;99.90;;;;;;5107533;28;20389;-55
2021/12/07 10:44:51;;;;;;;11.70;1.70;;;9.00;99.90;;;;;;5109875;28;20388;-56
2021/12/07 10:47:19;;;;;;;8.13;1.50;;;8.70;99.90;;;;;;5108740;28;20400;-52
2021/12/07 10:50:00;;;;;;;8.00;1.80;;;8.00;99.90;;;;;;5110101;28;20471;-52
2021/12/07 10:52:34;;;;;;;11.00;1.80;;;7.50;99.90;;;;;;5108926;28;20404;-52
2021/12/07 10:55:09;;;;;;;8.97;1.60;;;7.30;99.90;;;;;;5109288;28;20376;-53
2021/12/07 10:57:43;;;;;;;7.43;1.52;;;7.00;99.90;;;;;;5109728;28;20410;-55
2021/12/07 11:00:12;;;;;;;5.88;1.40;;;6.90;99.90;;;;;;5108616;28;20849;-55
2021/12/07 11:02:40;;;;;;;7.13;1.40;;;6.70;99.90;;;;;;5109722;28;20415;-54
2021/12/07 11:05:14;;;;;;;7.85;1.90;;;6.60;99.90;;;;;;5109190;28;20412;-59
2021/12/07 11:07:40;;;;;;;13.20;4.70;;;6.80;99.90;;;;;;5109430;28;20379;-56
2021/12/07 11:10:21;;;;;;;6.60;1.27;;;7.50;99.90;;;;;;5109412;28;20372;-58
2021/12/07 11:13:02;;;;;;;7.88;1.60;;;8.10;99.90;;;;;;5108925;28;20399;-55
2021/12/07 11:15:29;;;;;;;6.90;1.20;;;8.50;99.90;;;;;;5101040;28;20559;-54
2021/12/07 11:18:07;;;;;;;7.10;1.60;;;8.60;99.90;;;;;;5093216;28;20829;-54
2021/12/07 11:20:34;;;;;;;6.85;1.17;;;8.70;99.90;;;;;;5108156;28;20389;-54
2021/12/07 11:23:10;;;;;;;5.10;1.30;;;8.50;99.90;;;;;;5109504;28;20950;-52
2021/12/07 11:31:36;;;;;;;8.32;1.60;;;8.20;99.90;;;;;;5112151;28;20399;-52
2021/12/07 11:34:16;;;;;;;7.80;1.70;;;8.30;99.90;;;;;;5113051;28;20727;-52
2021/12/07 11:36:43;;;;;;;7.05;1.48;;;8.10;99.90;;;;;;5112966;28;20433;-52
2021/12/07 11:39:25;;;;;;;7.43;1.50;;;8.00;99.90;;;;;;5110755;28;20384;-56
2021/12/07 11:42:05;;;;;;;12.63;2.55;;;8.10;99.90;;;;;;5112967;28;20459;-53
2021/12/07 11:44:35;;;;;;;6.85;1.50;;;8.20;99.90;;;;;;5110870;28;20527;-53
2021/12/07 11:47:04;;;;;;;6.75;1.42;;;7.80;99.90;;;;;;5112873;28;20384;-53
2021/12/07 11:49:32;;;;;;;7.15;1.60;;;7.70;99.90;;;;;;5112048;28;20860;-52
2021/12/07 11:52:02;;;;;;;7.80;1.67;;;7.90;99.90;;;;;;5112600;28;20391;-53
2021/12/07 11:54:32;;;;;;;9.40;2.13;;;8.20;99.90;;;;;;5111895;28;20384;-53
2021/12/07 11:56:58;;;;;;;10.40;2.10;;;8.60;99.90;;;;;;5112231;28;20404;-53
2021/12/07 11:59:24;;;;;;;9.80;3.50;;;8.90;99.90;;;;;;5111840;28;20372;-55
2021/12/07 12:01:53;;;;;;;5.55;1.80;;;9.10;99.90;;;;;;5112601;28;20926;-53
2021/12/07 12:04:20;;;;;;;7.28;1.90;;;8.50;99.90;;;;;;5111505;28;20384;-53
2021/12/07 12:06:48;;;;;;;9.25;2.00;;;8.10;99.90;;;;;;5112482;28;20914;-53
2021/12/07 12:09:14;;;;;;;9.10;2.15;;;8.00;99.90;;;;;;5111192;28;20467;-53
2021/12/07 12:11:54;;;;;;;5.30;1.23;;;8.00;99.90;;;;;;5112231;28;20380;-52
2021/12/07 12:14:57;;;;;;;5.75;1.20;;;8.10;99.90;;;;;;5109760;28;20450;-55
2021/12/07 12:18:05;;;;;;;5.80;1.10;;;8.20;99.90;;;;;;5111428;27;20422;-53
2021/12/07 12:20:56;;;;;;;6.28;1.30;;;8.20;99.90;;;;;;5111734;28;20857;-55
2021/12/07 12:23:49;;;;;;;9.48;1.60;;;8.30;99.90;;;;;;5111247;28;20452;-53
2021/12/07 12:26:21;;;;;;;8.30;2.63;;;8.20;99.90;;;;;;5111005;28;20850;-53
2021/12/07 12:28:48;;;;;;;8.05;2.30;;;7.90;99.90;;;;;;5112143;28;20454;-53
2021/12/07 12:31:15;;;;;;;9.57;2.80;;;8.10;99.90;;;;;;5110987;28;20388;-53
2021/12/07 12:33:52;;;;;;;8.30;2.60;;;8.10;99.90;;;;;;5112040;28;20464;-55
2021/12/07 12:36:20;;;;;;;9.40;3.10;;;8.00;99.90;;;;;;5110127;28;20489;-52
2021/12/07 12:38:55;;;;;;;7.18;2.53;;;7.80;99.90;;;;;;5111999;28;20380;-52
2021/12/07 12:41:21;;;;;;;8.98;3.30;;;7.70;99.90;;;;;;5110874;28;20734;-52
2021/12/07 12:44:05;;;;;;;10.18;3.40;;;7.50;99.90;;;;;;5111505;28;20742;-53
2021/12/07 12:46:34;;;;;;;14.77;5.43;;;7.40;99.90;;;;;;5111396;28;20384;-53
2021/12/07 12:49:06;;;;;;;9.52;4.20;;;7.40;99.90;;;;;;5111629;28;20380;-52
2021/12/07 12:51:47;;;;;;;12.95;4.30;;;7.50;99.90;;;;;;5109782;28;20897;-52
2021/12/07 12:54:12;;;;;;;10.60;2.70;;;7.40;99.90;;;;;;5110687;28;20410;-53
2021/12/07 12:56:39;;;;;;;7.10;2.20;;;7.30;99.90;;;;;;5111491;28;20844;-53
2021/12/07 12:59:09;;;;;;;6.53;2.00;;;7.20;99.90;;;;;;5111450;28;20395;-53
2021/12/07 13:01:39;;;;;;;7.18;1.23;;;7.30;99.90;;;;;;5110178;28;20394;-53
2021/12/07 13:04:09;;;;;;;5.78;1.13;;;7.40;99.90;;;;;;5111375;28;20380;-53
2021/12/07 13:06:54;;;;;;;9.10;1.77;;;7.60;99.90;;;;;;5111306;28;20396;-53
2021/12/07 13:09:19;;;;;;;5.77;1.30;;;7.50;99.90;;;;;;5110253;28;20529;-53
2021/12/07 13:11:46;;;;;;;8.80;1.20;;;7.40;99.90;;;;;;5111322;28;20935;-53
2021/12/07 13:14:24;;;;;;;6.55;1.50;;;7.50;99.90;;;;;;5110428;28;20498;-53
2021/12/07 13:17:08;;;;;;;13.35;2.28;;;7.50;99.90;;;;;;5110802;28;20397;-53
2021/12/07 13:20:04;;;;;;;6.55;1.20;;;7.60;99.90;;;;;;5110479;28;20388;-52
2021/12/07 13:22:38;;;;;;;8.20;1.20;;;7.70;99.90;;;;;;5110391;28;20875;-53
2021/12/07 13:25:11;;;;;;;6.95;1.80;;;7.90;99.90;;;;;;5111038;28;20565;-54
2021/12/07 13:27:37;;;;;;;8.10;1.65;;;8.20;99.90;;;;;;5110888;28;20376;-54
2021/12/07 13:30:06;;;;;;;7.50;1.60;;;8.40;99.90;;;;;;5110820;28;21179;-53
2021/12/07 13:32:32;;;;;;;6.18;1.38;;;7.70;99.90;;;;;;5110512;28;20416;-53
2021/12/07 13:35:06;;;;;;;7.93;1.67;;;8.30;99.90;;;;;;5110292;28;20419;-56
2021/12/07 13:37:52;;;;;;;8.37;1.50;;;8.50;99.90;;;;;;5109977;28;20388;-53
2021/12/07 13:40:23;;;;;;;9.02;2.10;;;8.30;99.90;;;;;;5108199;28;20777;-53
2021/12/07 13:42:52;;;;;;;6.15;1.40;;;8.10;99.90;;;;;;5110385;28;20472;-55
2021/12/07 13:45:21;;;;;;;5.20;1.30;;;7.80;99.90;;;;;;5109795;28;20437;-53
2021/12/07 13:47:50;;;;;;;11.40;4.00;;;7.60;99.90;;;;;;5110230;28;20838;-53
2021/12/07 13:50:24;;;;;;;9.05;1.85;;;7.60;99.90;;;;;;5109785;28;20372;-53
2021/12/07 13:52:52;;;;;;;11.38;4.03;;;7.60;99.90;;;;;;5110704;28;20396;-53
2021/12/07 13:55:21;;;;;;;7.22;2.05;;;7.60;99.90;;;;;;5109747;28;20372;-53
2021/12/07 13:57:51;;;;;;;15.25;8.85;;;7.50;99.90;;;;;;5110255;28;20389;-57
2021/12/07 14:00:32;;;;;;;7.43;1.45;;;7.50;99.90;;;;;;5109224;28;20380;-53
2021/12/07 14:03:13;;;;;;;12.05;5.07;;;7.30;99.90;;;;;;5110141;28;20376;-53
2021/12/07 14:05:44;;;;;;;14.93;6.72;;;7.50;99.90;;;;;;5110423;28;20810;-55
2021/12/07 14:08:13;;;;;;;7.93;2.35;;;7.60;99.90;;;;;;5109534;28;20372;-57
2021/12/07 14:10:44;;;;;;;8.68;2.00;;;7.50;99.90;;;;;;5110114;28;20403;-53
2021/12/07 14:13:09;;;;;;;14.38;4.00;;;7.40;99.90;;;;;;5107637;28;20766;-60
2021/12/07 14:15:41;;;;;;;14.30;4.72;;;7.30;99.90;;;;;;5109505;28;20400;-53
2021/12/07 14:18:15;;;;;;;10.40;4.17;;;7.10;99.90;;;;;;5109353;28;20400;-57
2021/12/07 14:20:49;;;;;;;11.87;3.90;;;7.00;99.90;;;;;;5109931;28;20368;-54
2021/12/07 14:23:16;;;;;;;14.38;4.45;;;7.00;99.90;;;;;;5107881;28;20723;-53
2021/12/07 14:26:06;;;;;;;9.93;3.28;;;7.00;99.90;;;;;;5109363;28;20785;-54
2021/12/07 14:28:37;;;;;;;28.52;11.77;;;6.80;99.90;;;;;;5108715;28;20439;-55
2021/12/07 14:31:11;;;;;;;30.67;12.80;;;6.70;99.90;;;;;;5109440;28;20384;-53
2021/12/07 14:33:49;;;;;;;16.92;5.65;;;7.30;99.90;;;;;;5109681;28;20372;-53
2021/12/07 14:36:19;;;;;;;8.98;2.75;;;6.80;99.90;;;;;;5108904;28;20400;-54
2021/12/07 14:38:50;;;;;;;6.97;1.30;;;6.70;99.90;;;;;;5109676;28;20400;-53
2021/12/07 14:41:19;;;;;;;6.50;1.60;;;6.50;99.90;;;;;;5108977;28;20459;-54
2021/12/07 14:43:45;;;;;;;10.33;3.87;;;6.50;99.90;;;;;;5108372;28;20388;-54
2021/12/07 14:46:14;;;;;;;8.40;2.72;;;6.30;99.90;;;;;;5108772;28;20388;-57
2021/12/07 14:48:41;;;;;;;11.60;1.93;;;6.30;99.90;;;;;;5109430;28;20489;-55
2021/12/07 14:51:08;;;;;;;15.48;4.57;;;6.20;99.90;;;;;;5109791;28;20375;-54
2021/12/07 14:53:39;;;;;;;8.23;3.47;;;6.20;99.90;;;;;;5108695;28;20471;-54
2021/12/07 14:56:08;;;;;;;8.07;1.98;;;6.20;99.90;;;;;;5109575;28;20403;-54
2021/12/07 14:58:36;;;;;;;12.10;3.70;;;6.10;99.90;;;;;;5108896;28;20412;-54
2021/12/07 15:01:05;;;;;;;11.00;4.73;;;6.00;99.90;;;;;;5113018;28;20404;-54